createdAt,value
2018-05-12T00:00:45.567Z,14.80
2018-05-12T00:03:11.665Z,14.90
2018-05-12T00:05:37.707Z,14.80
2018-05-12T00:08:03.790Z,14.70
2018-05-12T00:10:29.854Z,14.80
2018-05-12T00:12:55.913Z,14.70
2018-05-12T00:15:21.965Z,14.70
2018-05-12T00:17:48.019Z,14.60
2018-05-12T00:20:14.085Z,14.60
2018-05-12T00:22:40.177Z,14.70
2018-05-12T00:25:07.037Z,14.60
2018-05-12T00:27:33.861Z,14.60
2018-05-12T00:29:59.991Z,14.50
2018-05-12T00:32:26.122Z,14.60
2018-05-12T00:34:52.205Z,14.60
2018-05-12T00:37:18.271Z,14.50
2018-05-12T00:39:44.343Z,14.60
2018-05-12T00:42:10.444Z,14.60
2018-05-12T00:44:36.487Z,14.50
2018-05-12T00:47:02.517Z,14.60
2018-05-12T00:49:28.601Z,14.60
2018-05-12T00:51:55.410Z,14.60
2018-05-12T00:54:21.446Z,14.60
2018-05-12T00:56:47.517Z,14.60
2018-05-12T00:59:13.545Z,14.60
2018-05-12T01:01:39.622Z,14.70
2018-05-12T01:04:06.026Z,14.70
2018-05-12T01:06:32.083Z,14.70
2018-05-12T01:08:59.576Z,14.70
2018-05-12T01:11:25.660Z,14.70
2018-05-12T01:13:51.688Z,14.70
2018-05-12T01:16:17.722Z,14.70
2018-05-12T01:18:43.899Z,14.70
2018-05-12T01:21:10.000Z,14.80
2018-05-12T01:23:36.059Z,14.80
2018-05-12T01:26:02.368Z,14.80
2018-05-12T01:28:29.189Z,14.80
2018-05-12T01:30:55.258Z,14.80
2018-05-12T01:33:22.043Z,14.80
2018-05-12T01:35:48.125Z,14.80
2018-05-12T01:38:14.169Z,14.80
2018-05-12T01:40:40.240Z,14.80
2018-05-12T01:43:07.138Z,14.80
2018-05-12T01:45:33.194Z,14.70
2018-05-12T01:47:59.256Z,14.70
2018-05-12T01:50:26.093Z,14.70
2018-05-12T01:52:52.116Z,14.70
2018-05-12T01:55:18.194Z,14.70
2018-05-12T01:57:44.991Z,14.80
2018-05-12T02:00:11.068Z,14.80
2018-05-12T02:02:37.845Z,14.80
2018-05-12T02:05:04.654Z,14.80
2018-05-12T02:07:30.753Z,14.80
2018-05-12T02:09:57.045Z,14.80
2018-05-12T02:12:23.092Z,14.90
2018-05-12T02:14:49.528Z,14.90
2018-05-12T02:17:15.585Z,15.10
2018-05-12T02:19:41.634Z,15.10
2018-05-12T02:22:08.438Z,15.00
2018-05-12T02:24:34.516Z,15.00
2018-05-12T02:27:00.579Z,15.00
2018-05-12T02:29:26.657Z,14.90
2018-05-12T02:31:52.735Z,14.80
2018-05-12T02:34:19.529Z,14.90
2018-05-12T02:36:45.597Z,14.80
2018-05-12T02:39:11.697Z,14.90
2018-05-12T02:41:37.754Z,14.90
2018-05-12T02:44:04.483Z,14.80
2018-05-12T02:46:30.565Z,14.90
2018-05-12T02:48:56.594Z,14.90
2018-05-12T02:51:22.672Z,14.90
2018-05-12T02:53:48.730Z,14.90
2018-05-12T02:56:14.811Z,14.80
2018-05-12T02:58:40.932Z,14.70
2018-05-12T03:01:06.999Z,14.60
2018-05-12T03:03:33.270Z,14.70
2018-05-12T03:06:00.105Z,14.70
2018-05-12T03:08:26.179Z,14.60
2018-05-12T03:10:52.285Z,14.60
2018-05-12T03:13:19.070Z,14.60
2018-05-12T03:15:45.141Z,14.60
2018-05-12T03:18:12.041Z,14.70
2018-05-12T03:20:38.845Z,14.70
2018-05-12T03:23:04.908Z,14.70
2018-05-12T03:25:30.945Z,14.70
2018-05-12T03:27:57.118Z,14.70
2018-05-12T03:30:23.150Z,14.70
2018-05-12T03:32:49.953Z,14.70
2018-05-12T03:35:15.999Z,14.70
2018-05-12T03:37:42.080Z,14.60
2018-05-12T03:40:08.131Z,14.60
2018-05-12T03:42:34.219Z,14.60
2018-05-12T03:45:00.277Z,14.70
2018-05-12T03:47:26.333Z,14.70
2018-05-12T03:49:52.379Z,14.70
2018-05-12T03:52:19.192Z,14.60
2018-05-12T03:54:45.322Z,14.60
2018-05-12T03:57:11.363Z,14.60
2018-05-12T03:59:37.413Z,14.60
2018-05-12T04:02:03.477Z,14.60
2018-05-12T04:04:42.633Z,14.70
2018-05-12T04:07:21.028Z,14.70
2018-05-12T04:10:00.257Z,14.70
2018-05-12T04:12:31.118Z,14.80
2018-05-12T04:14:57.171Z,14.90
2018-05-12T04:17:23.222Z,14.90
2018-05-12T04:19:50.014Z,14.90
2018-05-12T04:22:16.113Z,14.80
2018-05-12T04:24:43.005Z,15.00
2018-05-12T04:27:09.102Z,15.00
2018-05-12T04:29:35.961Z,14.90
2018-05-12T04:32:02.766Z,14.90
2018-05-12T04:34:28.884Z,14.90
2018-05-12T04:36:54.997Z,14.90
2018-05-12T04:39:21.772Z,14.90
2018-05-12T04:41:47.800Z,14.90
2018-05-12T04:44:14.622Z,14.90
2018-05-12T04:46:40.738Z,14.80
2018-05-12T04:49:06.765Z,14.90
2018-05-12T04:51:33.549Z,14.90
2018-05-12T04:53:59.618Z,14.80
2018-05-12T04:56:26.421Z,14.90
2018-05-12T04:58:52.457Z,14.90
2018-05-12T05:01:18.474Z,14.90
2018-05-12T05:03:44.481Z,15.00
2018-05-12T05:06:11.316Z,15.10
2018-05-12T05:08:37.360Z,15.10
2018-05-12T05:11:04.149Z,15.20
2018-05-12T05:13:30.243Z,15.10
2018-05-12T05:15:56.285Z,15.10
2018-05-12T05:18:22.349Z,15.10
2018-05-12T05:20:48.397Z,15.20
2018-05-12T05:23:14.449Z,15.30
2018-05-12T05:25:40.531Z,15.30
2018-05-12T05:28:06.594Z,15.30
2018-05-12T05:30:33.394Z,15.30
2018-05-12T05:32:59.502Z,15.30
2018-05-12T05:35:25.536Z,15.30
2018-05-12T05:37:51.665Z,15.30
2018-05-12T05:40:17.841Z,15.30
2018-05-12T05:42:43.894Z,15.40
2018-05-12T05:45:10.232Z,15.40
2018-05-12T05:47:36.323Z,15.50
2018-05-12T05:50:02.349Z,15.60
2018-05-12T05:52:28.404Z,15.70
2018-05-12T05:54:54.488Z,15.80
2018-05-12T05:57:20.423Z,15.80
2018-05-12T05:59:46.368Z,15.90
2018-05-12T06:02:12.365Z,15.90
2018-05-12T06:04:38.309Z,16.00
2018-05-12T06:07:04.280Z,16.10
2018-05-12T06:09:30.232Z,16.10
2018-05-12T06:11:56.164Z,16.20
2018-05-12T06:14:22.856Z,16.40
2018-05-12T06:16:49.143Z,16.40
2018-05-12T06:19:15.091Z,16.60
2018-05-12T06:21:41.034Z,16.60
2018-05-12T06:24:07.720Z,16.70
2018-05-12T06:26:33.711Z,16.70
2018-05-12T06:28:59.627Z,16.90
2018-05-12T06:31:25.562Z,17.00
2018-05-12T06:33:51.505Z,17.10
2018-05-12T06:36:17.443Z,17.10
2018-05-12T06:38:43.581Z,17.10
2018-05-12T06:41:09.553Z,17.20
2018-05-12T06:43:35.547Z,17.20
2018-05-12T06:46:01.494Z,17.20
2018-05-12T06:48:27.491Z,17.30
2018-05-12T06:50:53.449Z,17.40
2018-05-12T06:53:19.393Z,17.50
2018-05-12T06:55:45.338Z,17.50
2018-05-12T06:58:11.324Z,17.40
2018-05-12T07:00:37.357Z,17.30
2018-05-12T07:03:03.328Z,17.30
2018-05-12T07:05:29.304Z,17.30
2018-05-12T07:07:55.505Z,17.50
2018-05-12T07:10:21.605Z,17.50
2018-05-12T07:12:47.538Z,17.70
2018-05-12T07:15:13.505Z,17.80
2018-05-12T07:17:39.572Z,17.90
2018-05-12T07:20:06.385Z,18.30
2018-05-12T07:22:32.479Z,18.20
2018-05-12T07:24:59.660Z,18.40
2018-05-12T07:27:25.705Z,18.40
2018-05-12T07:29:51.833Z,18.30
2018-05-12T07:32:17.995Z,18.40
2018-05-12T07:34:44.087Z,18.30
2018-05-12T07:37:10.878Z,18.20
2018-05-12T07:39:36.945Z,18.20
2018-05-12T07:42:03.031Z,18.20
2018-05-12T07:44:29.828Z,18.40
2018-05-12T07:46:55.898Z,18.30
2018-05-12T07:49:22.685Z,18.60
2018-05-12T07:51:48.759Z,18.60
2018-05-12T07:54:14.839Z,18.70
2018-05-12T07:56:40.892Z,18.90
2018-05-12T07:59:07.030Z,18.90
2018-05-12T08:01:33.833Z,19.10
2018-05-12T08:03:59.987Z,19.10
2018-05-12T08:06:26.007Z,19.20
2018-05-12T08:08:52.031Z,19.20
2018-05-12T08:11:18.072Z,19.10
2018-05-12T08:13:44.094Z,19.00
2018-05-12T08:16:10.225Z,19.00
2018-05-12T08:18:37.065Z,19.10
2018-05-12T08:21:03.904Z,19.20
2018-05-12T08:23:30.706Z,19.30
2018-05-12T08:25:56.777Z,19.30
2018-05-12T08:28:22.878Z,19.40
2018-05-12T08:30:48.934Z,19.40
2018-05-12T08:33:15.040Z,19.60
2018-05-12T08:35:41.107Z,19.60
2018-05-12T08:38:07.171Z,19.60
2018-05-12T08:40:33.651Z,19.80
2018-05-12T08:43:00.328Z,20.30
2018-05-12T08:45:26.421Z,20.30
2018-05-12T08:47:52.495Z,20.50
2018-05-12T08:50:18.879Z,20.60
2018-05-12T08:52:45.674Z,21.10
2018-05-12T08:55:12.546Z,21.20
2018-05-12T08:57:38.513Z,21.20
2018-05-12T09:00:04.580Z,21.40
2018-05-12T09:02:30.651Z,21.60
2018-05-12T09:04:57.475Z,21.90
2018-05-12T09:07:23.569Z,21.90
2018-05-12T09:09:49.590Z,22.10
2018-05-12T09:12:15.675Z,22.20
2018-05-12T09:14:41.733Z,22.50
2018-05-12T09:17:07.805Z,22.70
2018-05-12T09:19:33.861Z,22.80
2018-05-12T09:22:00.011Z,23.10
2018-05-12T09:24:26.091Z,23.00
2018-05-12T09:26:53.162Z,23.10
2018-05-12T09:29:20.019Z,23.20
2018-05-12T09:31:46.816Z,23.50
2018-05-12T09:34:12.903Z,23.50
2018-05-12T09:36:39.757Z,23.50
2018-05-12T09:39:06.582Z,23.50
2018-05-12T09:41:32.657Z,23.50
2018-05-12T09:43:59.425Z,23.70
2018-05-12T09:46:32.523Z,23.70
2018-05-12T09:48:58.557Z,23.40
2018-05-12T09:51:24.628Z,23.70
2018-05-12T09:53:50.678Z,23.90
2018-05-12T09:56:16.761Z,24.20
2018-05-12T09:58:43.648Z,24.10
2018-05-12T10:01:11.017Z,24.10
2018-05-12T10:03:37.096Z,24.00
2018-05-12T10:06:03.209Z,24.10
2018-05-12T10:08:30.817Z,24.10
2018-05-12T10:10:56.850Z,24.10
2018-05-12T10:13:23.006Z,24.00
2018-05-12T10:15:49.819Z,24.00
2018-05-12T10:18:15.916Z,24.00
2018-05-12T10:20:42.822Z,24.70
2018-05-12T10:23:08.896Z,24.70
2018-05-12T10:25:35.646Z,25.00
2018-05-12T10:28:01.673Z,25.00
2018-05-12T10:30:27.837Z,24.90
2018-05-12T10:32:54.621Z,24.90
2018-05-12T10:35:20.650Z,24.90
2018-05-12T10:37:46.681Z,24.80
2018-05-12T10:40:13.106Z,25.00
2018-05-12T10:42:40.058Z,25.70
2018-05-12T10:45:06.107Z,25.70
2018-05-12T10:47:33.012Z,25.80
2018-05-12T10:49:59.749Z,25.80
2018-05-12T10:52:25.789Z,25.70
2018-05-12T10:54:51.862Z,25.60
2018-05-12T10:57:17.925Z,25.60
2018-05-12T10:59:45.081Z,25.10
2018-05-12T11:02:11.970Z,25.50
2018-05-12T11:04:38.005Z,25.40
2018-05-12T11:07:04.064Z,25.70
2018-05-12T11:09:30.196Z,25.60
2018-05-12T11:11:56.266Z,25.60
2018-05-12T11:14:23.313Z,25.40
2018-05-12T11:16:49.367Z,25.40
2018-05-12T11:19:15.463Z,25.70
2018-05-12T11:21:41.605Z,26.10
2018-05-12T11:24:07.813Z,27.00
2018-05-12T11:26:33.935Z,27.70
2018-05-12T11:28:59.970Z,27.90
2018-05-12T11:31:26.012Z,28.00
2018-05-12T11:33:53.099Z,27.70
2018-05-12T11:36:19.902Z,27.50
2018-05-12T11:38:46.103Z,27.40
2018-05-12T11:41:12.072Z,27.40
2018-05-12T11:43:38.147Z,27.70
2018-05-12T11:46:05.013Z,28.40
2018-05-12T11:48:31.724Z,29.20
2018-05-12T11:50:57.772Z,29.10
2018-05-12T11:53:23.976Z,30.40
2018-05-12T11:55:50.061Z,31.10
2018-05-12T11:58:16.219Z,31.00
2018-05-12T12:00:42.205Z,31.00
2018-05-12T12:03:08.249Z,30.60
2018-05-12T12:05:34.318Z,31.40
2018-05-12T12:08:01.223Z,32.30
2018-05-12T12:10:27.269Z,32.20
2018-05-12T12:12:53.337Z,32.30
2018-05-12T12:15:20.134Z,32.30
2018-05-12T12:17:46.169Z,32.30
2018-05-12T12:20:12.251Z,31.90
2018-05-12T12:22:39.077Z,32.70
2018-05-12T12:25:05.184Z,32.70
2018-05-12T12:27:32.235Z,32.50
2018-05-12T12:29:58.301Z,32.50
2018-05-12T12:32:24.337Z,32.80
2018-05-12T12:34:51.118Z,33.40
2018-05-12T12:37:17.194Z,33.40
2018-05-12T12:39:43.271Z,32.90
2018-05-12T12:42:09.344Z,33.00
2018-05-12T12:44:35.405Z,33.50
2018-05-12T12:47:01.481Z,34.00
2018-05-12T12:49:27.550Z,34.40
2018-05-12T12:51:53.586Z,33.80
2018-05-12T12:54:19.639Z,33.60
2018-05-12T12:56:45.682Z,33.60
2018-05-12T12:59:11.713Z,33.80
2018-05-12T13:01:37.756Z,34.40
2018-05-12T13:04:03.802Z,35.20
2018-05-12T13:06:29.888Z,34.60
2018-05-12T13:08:55.948Z,35.00
2018-05-12T13:11:21.998Z,35.40
2018-05-12T13:13:48.060Z,35.60
2018-05-12T13:16:14.153Z,34.90
2018-05-12T13:18:40.219Z,34.90
2018-05-12T13:21:06.255Z,35.60
2018-05-12T13:23:32.298Z,36.40
2018-05-12T13:25:58.349Z,36.50
2018-05-12T13:28:24.369Z,36.00
2018-05-12T13:30:50.439Z,36.50
2018-05-12T13:33:17.254Z,36.60
2018-05-12T13:35:43.319Z,36.60
2018-05-12T13:38:09.384Z,36.50
2018-05-12T13:40:35.431Z,37.40
2018-05-12T13:43:01.582Z,37.90
2018-05-12T13:45:27.890Z,38.20
2018-05-12T13:47:54.697Z,35.90
2018-05-12T13:50:20.718Z,35.90
2018-05-12T13:52:46.853Z,35.70
2018-05-12T13:55:12.905Z,36.00
2018-05-12T13:57:39.016Z,35.80
2018-05-12T14:00:05.078Z,36.30
2018-05-12T14:02:31.151Z,36.10
2018-05-12T14:04:57.355Z,35.70
2018-05-12T14:07:23.426Z,35.20
2018-05-12T14:09:49.433Z,35.60
2018-05-12T14:12:15.539Z,36.00
2018-05-12T14:14:41.598Z,37.70
2018-05-12T14:17:07.649Z,37.90
2018-05-12T14:19:33.709Z,38.30
2018-05-12T14:21:59.757Z,38.40
2018-05-12T14:24:26.553Z,40.20
2018-05-12T14:26:52.589Z,40.10
2018-05-12T14:29:18.630Z,40.20
2018-05-12T14:31:44.666Z,40.20
2018-05-12T14:34:10.808Z,40.20
2018-05-12T14:36:36.843Z,41.40
2018-05-12T14:39:03.060Z,41.40
2018-05-12T14:41:29.845Z,42.20
2018-05-12T14:43:55.921Z,42.10
2018-05-12T14:46:22.195Z,42.50
2018-05-12T14:48:49.014Z,42.00
2018-05-12T14:51:15.048Z,42.00
2018-05-12T14:53:41.185Z,40.80
2018-05-12T14:56:08.079Z,41.00
2018-05-12T14:58:34.104Z,40.90
2018-05-12T15:01:00.158Z,40.90
2018-05-12T15:03:26.918Z,39.90
2018-05-12T15:05:53.709Z,40.80
2018-05-12T15:08:19.780Z,40.80
2018-05-12T15:10:45.861Z,40.80
2018-05-12T15:13:11.929Z,40.20
2018-05-12T15:15:37.951Z,40.10
2018-05-12T15:18:04.044Z,40.60
2018-05-12T15:20:30.882Z,39.60
2018-05-12T15:22:56.965Z,39.60
2018-05-12T15:25:23.037Z,38.60
2018-05-12T15:27:49.088Z,37.10
2018-05-12T15:30:15.211Z,37.40
2018-05-12T15:32:41.309Z,37.90
2018-05-12T15:35:07.398Z,37.60
2018-05-12T15:37:33.441Z,37.60
2018-05-12T15:39:59.628Z,37.10
2018-05-12T15:42:25.669Z,36.50
2018-05-12T15:44:51.767Z,35.20
2018-05-12T15:47:17.845Z,34.10
2018-05-12T15:49:43.919Z,33.30
2018-05-12T15:52:10.020Z,32.60
2018-05-12T15:54:36.183Z,31.50
2018-05-12T15:57:02.244Z,31.10
2018-05-12T15:59:28.291Z,30.60
2018-05-12T16:01:54.370Z,30.20
2018-05-12T16:04:20.437Z,30.60
2018-05-12T16:06:46.484Z,30.60
2018-05-12T16:09:12.543Z,30.50
2018-05-12T16:11:38.592Z,29.70
2018-05-12T16:14:04.845Z,29.00
2018-05-12T16:16:30.886Z,28.70
2018-05-12T16:18:57.677Z,28.10
2018-05-12T16:21:23.767Z,28.10
2018-05-12T16:23:49.877Z,27.70
2018-05-12T16:26:16.690Z,26.50
2018-05-12T16:28:43.017Z,26.50
2018-05-12T16:31:09.863Z,25.90
2018-05-12T16:33:35.970Z,25.80
2018-05-12T16:36:02.050Z,25.70
2018-05-12T16:38:29.086Z,25.10
2018-05-12T16:40:55.122Z,25.10
2018-05-12T16:43:21.155Z,24.90
2018-05-12T16:45:47.223Z,24.80
2018-05-12T16:48:14.048Z,24.40
2018-05-12T16:50:40.983Z,24.20
2018-05-12T16:53:07.744Z,24.20
2018-05-12T16:55:34.530Z,24.20
2018-05-12T16:58:00.590Z,24.20
2018-05-12T17:00:27.375Z,24.10
2018-05-12T17:02:53.589Z,24.10
2018-05-12T17:05:19.753Z,24.00
2018-05-12T17:07:45.820Z,23.80
2018-05-12T17:10:11.906Z,23.80
2018-05-12T17:12:38.037Z,23.70
2018-05-12T17:15:04.853Z,24.50
2018-05-12T17:17:31.010Z,24.50
2018-05-12T17:19:57.053Z,24.60
2018-05-12T17:22:23.114Z,24.40
2018-05-12T17:24:49.182Z,24.10
2018-05-12T17:27:15.226Z,23.90
2018-05-12T17:29:41.365Z,23.70
2018-05-12T17:32:07.454Z,23.50
2018-05-12T17:34:34.321Z,23.00
2018-05-12T17:37:00.403Z,23.00
2018-05-12T17:39:26.446Z,22.90
2018-05-12T17:41:52.552Z,22.80
2018-05-12T17:44:18.677Z,22.60
2018-05-12T17:46:45.483Z,22.30
2018-05-12T17:49:11.564Z,22.30
2018-05-12T17:51:37.605Z,22.20
2018-05-12T17:54:03.980Z,22.00
2018-05-12T17:56:30.042Z,21.80
2018-05-12T17:58:56.226Z,21.70
2018-05-12T18:01:22.316Z,21.50
2018-05-12T18:03:48.413Z,21.30
2018-05-12T18:06:14.421Z,21.20
2018-05-12T18:08:41.245Z,20.90
2018-05-12T18:11:07.387Z,20.90
2018-05-12T18:13:33.455Z,20.70
2018-05-12T18:16:00.326Z,20.50
2018-05-12T18:18:26.340Z,20.50
2018-05-12T18:20:53.272Z,20.40
2018-05-12T18:23:19.328Z,20.30
2018-05-12T18:25:45.447Z,20.20
2018-05-12T18:28:11.486Z,20.10
2018-05-12T18:30:37.630Z,20.00
2018-05-12T18:33:03.725Z,19.90
2018-05-12T18:35:29.750Z,19.70
2018-05-12T18:37:56.183Z,19.70
2018-05-12T18:40:23.361Z,19.40
2018-05-12T18:42:49.450Z,19.40
2018-05-12T18:45:15.706Z,19.30
2018-05-12T18:47:41.906Z,19.20
2018-05-12T18:50:08.637Z,19.10
2018-05-12T18:52:34.767Z,19.00
2018-05-12T18:55:00.887Z,18.90
2018-05-12T18:57:27.391Z,18.80
2018-05-12T18:59:53.454Z,18.70
2018-05-12T19:02:19.504Z,18.60
2018-05-12T19:04:45.567Z,18.50
2018-05-12T19:07:11.699Z,18.40
2018-05-12T19:09:37.913Z,18.30
2018-05-12T19:12:03.957Z,18.20
2018-05-12T19:14:30.036Z,18.10
2018-05-12T19:16:56.172Z,18.00
2018-05-12T19:19:22.168Z,17.90
2018-05-12T19:21:48.229Z,17.80
2018-05-12T19:24:15.089Z,17.70
2018-05-12T19:26:41.212Z,17.60
2018-05-12T19:29:08.374Z,17.50
2018-05-12T19:31:35.145Z,17.40
2018-05-12T19:34:01.941Z,17.30
2018-05-12T19:36:28.007Z,17.30
2018-05-12T19:38:54.085Z,17.20
2018-05-12T19:41:38.115Z,17.10
2018-05-12T19:44:04.154Z,17.10
2018-05-12T19:46:30.958Z,16.90
2018-05-12T19:48:57.146Z,16.90
2018-05-12T19:51:23.242Z,16.90
2018-05-12T19:53:49.619Z,16.80
2018-05-12T19:56:15.738Z,16.70
2018-05-12T19:58:41.920Z,16.70
2018-05-12T20:01:07.980Z,16.70
2018-05-12T20:03:34.042Z,16.60
2018-05-12T20:06:00.520Z,16.60
2018-05-12T20:08:26.568Z,16.50
2018-05-12T20:10:52.818Z,16.50
2018-05-12T20:13:19.594Z,16.40
2018-05-12T20:15:45.651Z,16.40
2018-05-12T20:18:12.211Z,16.40
2018-05-12T20:20:38.302Z,16.30
2018-05-12T20:23:05.199Z,16.20
2018-05-12T20:25:31.607Z,16.20
2018-05-12T20:27:57.688Z,16.20
2018-05-12T20:30:24.488Z,16.10
2018-05-12T20:32:51.308Z,16.10
2018-05-12T20:35:17.516Z,16.00
2018-05-12T20:37:43.613Z,16.00
2018-05-12T20:40:13.322Z,16.00
2018-05-12T20:42:40.835Z,16.00
2018-05-12T20:45:07.628Z,15.90
2018-05-12T20:47:33.657Z,15.90
2018-05-12T20:50:00.644Z,15.90
2018-05-12T20:52:26.680Z,15.90
2018-05-12T20:54:53.993Z,15.90
2018-05-12T20:57:20.257Z,15.90
2018-05-12T20:59:46.283Z,15.90
2018-05-12T21:02:12.455Z,15.90
2018-05-12T21:04:39.303Z,15.90
2018-05-12T21:07:05.374Z,15.90
2018-05-12T21:09:38.753Z,15.90
2018-05-12T21:12:04.785Z,15.90
2018-05-12T21:14:30.870Z,15.90
2018-05-12T21:16:56.935Z,15.80
2018-05-12T21:19:23.017Z,15.80
2018-05-12T21:21:49.554Z,15.80
2018-05-12T21:24:15.611Z,15.70
2018-05-12T21:26:41.658Z,15.70
2018-05-12T21:29:07.834Z,15.70
2018-05-12T21:31:34.624Z,15.70
2018-05-12T21:34:00.691Z,15.70
2018-05-12T21:36:26.809Z,15.70
2018-05-12T21:38:52.901Z,15.80
2018-05-12T21:41:19.721Z,15.90
2018-05-12T21:43:45.781Z,15.80
2018-05-12T21:46:11.877Z,15.90
2018-05-12T21:48:37.937Z,16.00
2018-05-12T21:51:04.024Z,16.10
2018-05-12T21:53:30.101Z,16.10
2018-05-12T21:55:56.157Z,16.10
2018-05-12T21:58:22.196Z,16.10
2018-05-12T22:00:48.237Z,16.10
2018-05-12T22:03:15.028Z,16.10
2018-05-12T22:05:41.095Z,16.10
2018-05-12T22:08:07.190Z,16.20
2018-05-12T22:10:33.192Z,16.20
2018-05-12T22:12:59.296Z,16.20
2018-05-12T22:15:25.334Z,16.30
2018-05-12T22:17:51.389Z,16.20
2018-05-12T22:20:17.510Z,16.20
2018-05-12T22:22:43.613Z,16.20
2018-05-12T22:25:09.693Z,16.20
2018-05-12T22:27:35.785Z,16.20
2018-05-12T22:30:02.581Z,16.30
2018-05-12T22:32:28.665Z,16.30
2018-05-12T22:34:54.697Z,16.30
2018-05-12T22:37:20.736Z,16.30
2018-05-12T22:39:47.551Z,16.40
2018-05-12T22:42:14.507Z,16.40
2018-05-12T22:44:40.567Z,16.40
2018-05-12T22:47:06.643Z,16.40
2018-05-12T22:49:32.700Z,16.40
2018-05-12T22:51:58.751Z,16.30
2018-05-12T22:54:25.142Z,16.30
2018-05-12T22:56:51.237Z,16.30
2018-05-12T22:59:17.261Z,16.20
2018-05-12T23:01:43.697Z,16.10
2018-05-12T23:04:09.741Z,16.00
2018-05-12T23:06:35.814Z,16.00
2018-05-12T23:09:01.913Z,15.90
2018-05-12T23:11:35.002Z,15.90
2018-05-12T23:14:01.069Z,15.80
2018-05-12T23:16:27.195Z,15.80
2018-05-12T23:18:53.226Z,15.80
2018-05-12T23:21:19.285Z,15.70
2018-05-12T23:23:45.369Z,15.70
2018-05-12T23:26:18.327Z,15.70
2018-05-12T23:28:44.426Z,15.60
2018-05-12T23:31:11.230Z,15.60
2018-05-12T23:33:37.283Z,15.60
2018-05-12T23:36:03.377Z,15.60
2018-05-12T23:38:29.416Z,15.60
2018-05-12T23:40:55.519Z,15.50
2018-05-12T23:43:21.541Z,15.60
2018-05-12T23:45:47.566Z,15.50
2018-05-12T23:48:13.701Z,15.50
2018-05-12T23:50:39.767Z,15.50
2018-05-12T23:53:06.556Z,15.40
2018-05-12T23:55:32.602Z,15.40
2018-05-12T23:57:58.662Z,15.40
